APG912 RPVB-RPMR
Flight info
| Callsign | APG912 |
|---|---|
| Flight time | 1h 0m |
| Altitude | 35000 |
| Route | NANAS4P NANAS B472 COT W19 MELBY MELBY3R |
| Aircraft | A320/M-SDE3FGHIRWY/LB1 |
Departure
| Time | 2026-04-26 15:30 |
|---|---|
| Airport | Bacolod-Silay International Airport (RPVB) |
Arrival
| Time | 2026-04-26 16:30 |
|---|---|
| Airport | General Santos International Airport (RPMR) |
| Time | Latitude | Longitude | Altitude | Speed | Heading |
|---|---|---|---|---|---|
| 2026-04-26 15:15 | 10.77680 | 123.01568 | 85 ft | 0 kts | 300° |
| 2026-04-26 15:21 | 10.77673 | 123.01583 | 87 ft | 2 kts | 302° |
| 2026-04-26 15:21 | 10.77664 | 123.01597 | 85 ft | 2 kts | 301° |
| 2026-04-26 15:21 | 10.77656 | 123.01611 | 85 ft | 2 kts | 304° |
| 2026-04-26 15:22 | 10.77645 | 123.01624 | 86 ft | 2 kts | 311° |
| 2026-04-26 15:22 | 10.77646 | 123.01636 | 83 ft | 2 kts | 215° |
| 2026-04-26 15:22 | 10.77652 | 123.01640 | 83 ft | 0 kts | 211° |
| 2026-04-26 15:23 | 10.77651 | 123.01640 | 86 ft | 0 kts | 211° |
| 2026-04-26 15:23 | 10.77648 | 123.01638 | 86 ft | 1 kts | 211° |
| 2026-04-26 15:24 | 10.77640 | 123.01633 | 88 ft | 4 kts | 211° |
| 2026-04-26 15:24 | 10.77605 | 123.01612 | 86 ft | 10 kts | 210° |
| 2026-04-26 15:24 | 10.77534 | 123.01572 | 88 ft | 17 kts | 209° |
| 2026-04-26 15:25 | 10.77436 | 123.01516 | 85 ft | 6 kts | 210° |
| 2026-04-26 15:25 | 10.77424 | 123.01510 | 86 ft | 8 kts | 205° |
| 2026-04-26 15:26 | 10.77393 | 123.01506 | 86 ft | 10 kts | 175° |
| 2026-04-26 15:26 | 10.77334 | 123.01568 | 85 ft | 15 kts | 119° |
| 2026-04-26 15:26 | 10.77248 | 123.01651 | 84 ft | 21 kts | 182° |
| 2026-04-26 15:26 | 10.77204 | 123.01635 | 84 ft | 16 kts | 210° |
| 2026-04-26 15:27 | 10.77130 | 123.01594 | 86 ft | 20 kts | 208° |
| 2026-04-26 15:27 | 10.76994 | 123.01517 | 86 ft | 27 kts | 210° |
| 2026-04-26 15:27 | 10.76928 | 123.01475 | 86 ft | 13 kts | 220° |
| 2026-04-26 15:28 | 10.76923 | 123.01463 | 88 ft | 0 kts | 249° |
| 2026-04-26 15:28 | 10.76913 | 123.01457 | 87 ft | 1 kts | 166° |
| 2026-04-26 15:28 | 10.76921 | 123.01472 | 87 ft | 4 kts | 41° |
| 2026-04-26 15:28 | 10.76949 | 123.01489 | 88 ft | 5 kts | 31° |
| 2026-04-26 15:29 | 10.76950 | 123.01489 | 88 ft | 0 kts | 31° |
| 2026-04-26 15:29 | 10.76996 | 123.01517 | 85 ft | 24 kts | 30° |
| 2026-04-26 15:29 | 10.78120 | 123.02172 | 207 ft | 140 kts | 31° |
| 2026-04-26 15:30 | 10.79750 | 123.03073 | 1379 ft | 145 kts | 16° |
| 2026-04-26 15:30 | 10.80817 | 123.03005 | 1644 ft | 168 kts | 348° |
| 2026-04-26 15:30 | 10.82009 | 123.02662 | 1766 ft | 189 kts | 349° |
| 2026-04-26 15:31 | 10.83204 | 123.02331 | 1912 ft | 210 kts | 349° |
| 2026-04-26 15:31 | 10.86311 | 123.01480 | 2218 ft | 254 kts | 348° |
| 2026-04-26 15:31 | 10.88056 | 123.01004 | 2553 ft | 263 kts | 349° |
| 2026-04-26 15:32 | 10.90894 | 123.00228 | 3305 ft | 269 kts | 349° |
| 2026-04-26 15:32 | 10.93301 | 122.99571 | 3962 ft | 272 kts | 348° |
| 2026-04-26 15:32 | 10.95045 | 122.98780 | 4449 ft | 280 kts | 327° |
| 2026-04-26 15:33 | 10.96349 | 122.97296 | 4910 ft | 287 kts | 300° |
| 2026-04-26 15:33 | 10.96883 | 122.95333 | 5364 ft | 293 kts | 271° |
| 2026-04-26 15:33 | 10.96490 | 122.93313 | 5802 ft | 294 kts | 243° |
| 2026-04-26 15:33 | 10.95258 | 122.91677 | 6235 ft | 293 kts | 216° |
| 2026-04-26 15:34 | 10.93466 | 122.90765 | 6646 ft | 289 kts | 189° |
| 2026-04-26 15:34 | 10.91475 | 122.90686 | 7042 ft | 286 kts | 173° |
| 2026-04-26 15:34 | 10.89481 | 122.90832 | 7458 ft | 290 kts | 173° |
| 2026-04-26 15:34 | 10.87461 | 122.90980 | 8218 ft | 292 kts | 173° |
| 2026-04-26 15:35 | 10.85433 | 122.91128 | 8999 ft | 294 kts | 173° |
| 2026-04-26 15:35 | 10.83381 | 122.91275 | 9764 ft | 297 kts | 173° |
| 2026-04-26 15:35 | 10.81288 | 122.91424 | 10280 ft | 309 kts | 173° |
| 2026-04-26 15:35 | 10.79062 | 122.91583 | 10452 ft | 332 kts | 174° |
| 2026-04-26 15:36 | 10.76733 | 122.91745 | 10832 ft | 345 kts | 174° |
| 2026-04-26 15:36 | 10.74323 | 122.91910 | 11436 ft | 350 kts | 174° |
| 2026-04-26 15:36 | 10.71877 | 122.92077 | 12059 ft | 354 kts | 174° |
| 2026-04-26 15:36 | 10.69404 | 122.92245 | 12702 ft | 357 kts | 174° |
| 2026-04-26 15:37 | 10.66907 | 122.92416 | 13307 ft | 361 kts | 174° |
| 2026-04-26 15:37 | 10.64595 | 122.92578 | 13845 ft | 365 kts | 174° |
| 2026-04-26 15:37 | 10.62054 | 122.92758 | 14369 ft | 368 kts | 174° |
| 2026-04-26 15:37 | 10.59487 | 122.92936 | 14900 ft | 371 kts | 174° |
| 2026-04-26 15:38 | 10.56926 | 122.93112 | 15444 ft | 374 kts | 174° |
| 2026-04-26 15:38 | 10.54319 | 122.93290 | 15978 ft | 377 kts | 174° |
| 2026-04-26 15:38 | 10.51693 | 122.93469 | 16531 ft | 380 kts | 174° |
| 2026-04-26 15:38 | 10.49050 | 122.93652 | 17070 ft | 382 kts | 174° |
| 2026-04-26 15:39 | 10.46380 | 122.93841 | 17612 ft | 385 kts | 174° |
| 2026-04-26 15:39 | 10.43706 | 122.94028 | 18139 ft | 388 kts | 174° |
| 2026-04-26 15:39 | 10.41004 | 122.94214 | 18591 ft | 390 kts | 175° |
| 2026-04-26 15:39 | 10.39202 | 122.94338 | 18891 ft | 392 kts | 175° |
| 2026-04-26 15:40 | 10.35548 | 122.94593 | 19486 ft | 395 kts | 175° |
| 2026-04-26 15:40 | 10.32793 | 122.94785 | 19926 ft | 398 kts | 175° |
| 2026-04-26 15:40 | 10.30021 | 122.94977 | 20365 ft | 400 kts | 175° |
| 2026-04-26 15:40 | 10.27411 | 122.95155 | 20769 ft | 403 kts | 175° |
| 2026-04-26 15:41 | 10.24605 | 122.95345 | 21185 ft | 405 kts | 175° |
| 2026-04-26 15:41 | 10.21789 | 122.95538 | 21610 ft | 407 kts | 175° |
| 2026-04-26 15:41 | 10.18949 | 122.95738 | 22024 ft | 410 kts | 175° |
| 2026-04-26 15:41 | 10.16098 | 122.95939 | 22440 ft | 412 kts | 175° |
| 2026-04-26 15:42 | 10.13229 | 122.96141 | 22844 ft | 415 kts | 175° |
| 2026-04-26 15:42 | 10.10336 | 122.96343 | 23242 ft | 417 kts | 175° |
| 2026-04-26 15:42 | 10.07431 | 122.96544 | 23602 ft | 419 kts | 175° |
| 2026-04-26 15:42 | 10.04516 | 122.96743 | 23933 ft | 421 kts | 175° |
| 2026-04-26 15:43 | 10.01580 | 122.96944 | 24263 ft | 423 kts | 175° |
| 2026-04-26 15:43 | 9.98625 | 122.97151 | 24600 ft | 425 kts | 175° |
| 2026-04-26 15:43 | 9.92693 | 122.97562 | 25244 ft | 429 kts | 176° |
| 2026-04-26 15:44 | 9.89701 | 122.97769 | 25567 ft | 431 kts | 176° |
| 2026-04-26 15:44 | 9.83731 | 122.98187 | 26214 ft | 435 kts | 176° |
| 2026-04-26 15:44 | 9.80709 | 122.98475 | 26517 ft | 436 kts | 170° |
| 2026-04-26 15:45 | 9.74937 | 123.00431 | 27109 ft | 440 kts | 155° |
| 2026-04-26 15:45 | 9.72157 | 123.01753 | 27396 ft | 443 kts | 155° |
| 2026-04-26 15:46 | 9.66548 | 123.04397 | 27993 ft | 447 kts | 155° |
| 2026-04-26 15:46 | 9.63716 | 123.05722 | 28281 ft | 449 kts | 155° |
| 2026-04-26 15:46 | 9.60876 | 123.07053 | 28572 ft | 451 kts | 155° |
| 2026-04-26 15:46 | 9.58989 | 123.07938 | 28764 ft | 452 kts | 155° |
| 2026-04-26 15:47 | 9.55161 | 123.09735 | 29139 ft | 455 kts | 155° |
| 2026-04-26 15:47 | 9.49383 | 123.12442 | 29689 ft | 459 kts | 156° |
| 2026-04-26 15:47 | 9.46473 | 123.13806 | 29952 ft | 461 kts | 156° |
| 2026-04-26 15:48 | 9.43566 | 123.15171 | 30182 ft | 462 kts | 156° |
| 2026-04-26 15:48 | 9.40643 | 123.16544 | 30425 ft | 463 kts | 156° |
| 2026-04-26 15:48 | 9.37716 | 123.17917 | 30669 ft | 464 kts | 156° |
| 2026-04-26 15:48 | 9.34779 | 123.19295 | 30921 ft | 464 kts | 156° |
| 2026-04-26 15:49 | 9.31888 | 123.20653 | 31166 ft | 465 kts | 156° |
| 2026-04-26 15:49 | 9.28957 | 123.22027 | 31492 ft | 463 kts | 156° |
| 2026-04-26 15:49 | 9.26040 | 123.23393 | 31835 ft | 461 kts | 156° |
| 2026-04-26 15:49 | 9.23132 | 123.24752 | 32173 ft | 460 kts | 156° |
| 2026-04-26 15:50 | 9.20235 | 123.26105 | 32500 ft | 458 kts | 156° |
| 2026-04-26 15:50 | 9.17342 | 123.27462 | 32825 ft | 457 kts | 155° |
| 2026-04-26 15:50 | 9.14462 | 123.28810 | 33128 ft | 456 kts | 155° |
| 2026-04-26 15:50 | 9.11581 | 123.30158 | 33451 ft | 455 kts | 155° |
| 2026-04-26 15:51 | 9.08710 | 123.31504 | 33766 ft | 454 kts | 155° |
| 2026-04-26 15:51 | 9.05951 | 123.32799 | 34039 ft | 453 kts | 155° |
| 2026-04-26 15:51 | 9.03085 | 123.34141 | 34299 ft | 453 kts | 155° |
| 2026-04-26 15:51 | 9.00234 | 123.35473 | 34544 ft | 452 kts | 155° |
| 2026-04-26 15:52 | 8.97383 | 123.36805 | 34784 ft | 451 kts | 155° |
| 2026-04-26 15:52 | 8.91713 | 123.39460 | 34890 ft | 445 kts | 155° |
| 2026-04-26 15:53 | 8.86112 | 123.42077 | 34884 ft | 443 kts | 155° |
| 2026-04-26 15:53 | 8.80520 | 123.44689 | 34886 ft | 442 kts | 155° |
| 2026-04-26 15:54 | 8.74969 | 123.47285 | 34888 ft | 442 kts | 155° |
| 2026-04-26 15:54 | 8.69384 | 123.49895 | 34893 ft | 442 kts | 155° |
| 2026-04-26 15:55 | 8.63799 | 123.52505 | 34896 ft | 442 kts | 155° |
| 2026-04-26 15:55 | 8.58205 | 123.55118 | 34902 ft | 443 kts | 155° |
| 2026-04-26 15:56 | 8.52608 | 123.57732 | 34905 ft | 443 kts | 155° |
| 2026-04-26 15:56 | 8.47017 | 123.60342 | 34905 ft | 443 kts | 155° |
| 2026-04-26 15:57 | 8.41418 | 123.62959 | 34909 ft | 443 kts | 155° |
| 2026-04-26 15:57 | 8.35814 | 123.65571 | 34918 ft | 443 kts | 155° |
| 2026-04-26 15:58 | 8.30213 | 123.68178 | 34919 ft | 443 kts | 155° |
| 2026-04-26 15:58 | 8.24620 | 123.70785 | 34922 ft | 442 kts | 155° |
| 2026-04-26 15:59 | 8.19039 | 123.73387 | 34921 ft | 442 kts | 155° |
| 2026-04-26 15:59 | 8.13465 | 123.75986 | 34923 ft | 441 kts | 155° |
| 2026-04-26 16:00 | 8.07926 | 123.78563 | 34925 ft | 441 kts | 155° |
| 2026-04-26 16:00 | 8.02357 | 123.81156 | 34917 ft | 441 kts | 155° |
| 2026-04-26 16:01 | 7.96782 | 123.83747 | 34921 ft | 441 kts | 155° |
| 2026-04-26 16:01 | 7.91209 | 123.86335 | 34918 ft | 441 kts | 155° |
| 2026-04-26 16:02 | 7.85628 | 123.88930 | 34917 ft | 441 kts | 155° |
| 2026-04-26 16:02 | 7.80049 | 123.91523 | 34916 ft | 442 kts | 155° |
| 2026-04-26 16:03 | 7.74471 | 123.94120 | 34907 ft | 442 kts | 155° |
| 2026-04-26 16:03 | 7.69036 | 123.96651 | 34907 ft | 442 kts | 155° |
| 2026-04-26 16:04 | 7.63442 | 123.99250 | 34908 ft | 443 kts | 155° |
| 2026-04-26 16:04 | 7.57847 | 124.01845 | 34908 ft | 443 kts | 155° |
| 2026-04-26 16:05 | 7.52248 | 124.04445 | 34904 ft | 443 kts | 155° |
| 2026-04-26 16:05 | 7.46636 | 124.07053 | 34903 ft | 443 kts | 155° |
| 2026-04-26 16:06 | 7.41039 | 124.09654 | 34899 ft | 443 kts | 155° |
| 2026-04-26 16:06 | 7.35440 | 124.12248 | 34896 ft | 443 kts | 155° |
| 2026-04-26 16:07 | 7.29869 | 124.14828 | 34899 ft | 443 kts | 155° |
| 2026-04-26 16:07 | 7.24272 | 124.17423 | 34901 ft | 443 kts | 155° |
| 2026-04-26 16:08 | 7.18674 | 124.20019 | 34905 ft | 442 kts | 154° |
| 2026-04-26 16:08 | 7.13587 | 124.23468 | 34908 ft | 442 kts | 141° |
| 2026-04-26 16:09 | 7.08798 | 124.27363 | 34845 ft | 443 kts | 141° |
| 2026-04-26 16:09 | 7.06391 | 124.29318 | 34217 ft | 445 kts | 141° |
| 2026-04-26 16:09 | 7.03986 | 124.31270 | 33633 ft | 443 kts | 141° |
| 2026-04-26 16:09 | 7.01591 | 124.33213 | 33083 ft | 439 kts | 141° |
| 2026-04-26 16:10 | 6.99223 | 124.35128 | 32533 ft | 436 kts | 141° |
| 2026-04-26 16:10 | 6.96864 | 124.37035 | 32001 ft | 433 kts | 141° |
| 2026-04-26 16:10 | 6.94530 | 124.38927 | 31469 ft | 430 kts | 141° |
| 2026-04-26 16:10 | 6.92238 | 124.40787 | 30938 ft | 428 kts | 141° |
| 2026-04-26 16:11 | 6.89931 | 124.42658 | 30430 ft | 425 kts | 141° |
| 2026-04-26 16:11 | 6.87633 | 124.44518 | 29899 ft | 423 kts | 141° |
| 2026-04-26 16:11 | 6.85339 | 124.46371 | 29343 ft | 420 kts | 141° |
| 2026-04-26 16:11 | 6.83076 | 124.48200 | 28854 ft | 416 kts | 141° |
| 2026-04-26 16:12 | 6.80836 | 124.50012 | 28361 ft | 411 kts | 141° |
| 2026-04-26 16:12 | 6.78638 | 124.51790 | 27900 ft | 407 kts | 141° |
| 2026-04-26 16:12 | 6.74275 | 124.55321 | 26985 ft | 398 kts | 141° |
| 2026-04-26 16:13 | 6.72104 | 124.57075 | 26009 ft | 407 kts | 141° |
| 2026-04-26 16:13 | 6.69846 | 124.58900 | 24804 ft | 423 kts | 141° |
| 2026-04-26 16:13 | 6.67498 | 124.60798 | 23462 ft | 442 kts | 141° |
| 2026-04-26 16:13 | 6.65065 | 124.62744 | 22134 ft | 453 kts | 141° |
| 2026-04-26 16:14 | 6.62538 | 124.64696 | 20985 ft | 460 kts | 142° |
| 2026-04-26 16:14 | 6.59983 | 124.66623 | 20167 ft | 458 kts | 142° |
| 2026-04-26 16:14 | 6.54900 | 124.70407 | 18781 ft | 450 kts | 142° |
| 2026-04-26 16:15 | 6.52394 | 124.72282 | 18105 ft | 446 kts | 142° |
| 2026-04-26 16:15 | 6.49956 | 124.74120 | 17403 ft | 442 kts | 142° |
| 2026-04-26 16:15 | 6.47513 | 124.75972 | 16724 ft | 437 kts | 142° |
| 2026-04-26 16:16 | 6.42711 | 124.79621 | 15401 ft | 428 kts | 142° |
| 2026-04-26 16:16 | 6.40350 | 124.81416 | 14764 ft | 424 kts | 142° |
| 2026-04-26 16:16 | 6.38215 | 124.83420 | 14140 ft | 418 kts | 129° |
| 2026-04-26 16:16 | 6.36587 | 124.85681 | 13528 ft | 414 kts | 124° |
| 2026-04-26 16:17 | 6.34953 | 124.88035 | 12959 ft | 402 kts | 124° |
| 2026-04-26 16:17 | 6.33410 | 124.90253 | 12719 ft | 373 kts | 124° |
| 2026-04-26 16:17 | 6.31975 | 124.92315 | 12478 ft | 347 kts | 124° |
| 2026-04-26 16:17 | 6.30626 | 124.94233 | 12230 ft | 326 kts | 127° |
| 2026-04-26 16:18 | 6.29199 | 124.95938 | 11988 ft | 315 kts | 129° |
| 2026-04-26 16:18 | 6.26404 | 124.99261 | 11507 ft | 310 kts | 129° |
| 2026-04-26 16:19 | 6.23700 | 125.02485 | 11047 ft | 306 kts | 129° |
| 2026-04-26 16:19 | 6.22331 | 125.04117 | 10814 ft | 305 kts | 129° |
| 2026-04-26 16:19 | 6.20063 | 125.06818 | 10427 ft | 303 kts | 129° |
| 2026-04-26 16:20 | 6.18253 | 125.08971 | 10119 ft | 301 kts | 129° |
| 2026-04-26 16:20 | 6.16039 | 125.11603 | 9849 ft | 291 kts | 129° |
| 2026-04-26 16:20 | 6.14738 | 125.13150 | 9726 ft | 288 kts | 128° |
| 2026-04-26 16:21 | 6.13449 | 125.14683 | 9598 ft | 287 kts | 129° |
| 2026-04-26 16:21 | 6.12155 | 125.16215 | 9465 ft | 287 kts | 130° |
| 2026-04-26 16:21 | 6.10647 | 125.17524 | 9340 ft | 288 kts | 146° |
| 2026-04-26 16:21 | 6.08202 | 125.18569 | 9168 ft | 291 kts | 166° |
| 2026-04-26 16:22 | 6.06847 | 125.18777 | 9088 ft | 293 kts | 171° |
| 2026-04-26 16:22 | 6.04829 | 125.19016 | 8961 ft | 292 kts | 171° |
| 2026-04-26 16:22 | 6.02814 | 125.19260 | 8836 ft | 290 kts | 171° |
| 2026-04-26 16:22 | 6.00832 | 125.19501 | 8414 ft | 289 kts | 171° |
| 2026-04-26 16:23 | 5.98781 | 125.19753 | 7554 ft | 306 kts | 171° |
| 2026-04-26 16:23 | 5.96641 | 125.20018 | 6667 ft | 322 kts | 171° |
| 2026-04-26 16:23 | 5.94443 | 125.20285 | 6310 ft | 307 kts | 171° |
| 2026-04-26 16:23 | 5.92408 | 125.20530 | 6177 ft | 283 kts | 171° |
| 2026-04-26 16:24 | 5.90541 | 125.20693 | 6049 ft | 255 kts | 182° |
| 2026-04-26 16:24 | 5.88974 | 125.20108 | 5927 ft | 231 kts | 219° |
| 2026-04-26 16:24 | 5.88119 | 125.18821 | 5819 ft | 215 kts | 256° |
| 2026-04-26 16:24 | 5.87918 | 125.17414 | 5597 ft | 196 kts | 264° |
| 2026-04-26 16:25 | 5.87758 | 125.16086 | 5288 ft | 187 kts | 264° |
| 2026-04-26 16:25 | 5.87602 | 125.14813 | 5006 ft | 180 kts | 264° |
| 2026-04-26 16:25 | 5.87469 | 125.13593 | 4683 ft | 172 kts | 271° |
| 2026-04-26 16:25 | 5.87798 | 125.12491 | 4370 ft | 161 kts | 308° |
| 2026-04-26 16:26 | 5.88618 | 125.11802 | 4105 ft | 151 kts | 341° |
| 2026-04-26 16:26 | 5.89623 | 125.11604 | 3861 ft | 146 kts | 357° |
| 2026-04-26 16:26 | 5.90631 | 125.11485 | 3613 ft | 145 kts | 356° |
| 2026-04-26 16:26 | 5.91633 | 125.11361 | 3365 ft | 145 kts | 356° |
| 2026-04-26 16:27 | 5.92632 | 125.11238 | 3112 ft | 144 kts | 355° |
| 2026-04-26 16:27 | 5.93614 | 125.11115 | 2858 ft | 144 kts | 355° |
| 2026-04-26 16:27 | 5.94606 | 125.10993 | 2613 ft | 143 kts | 355° |
| 2026-04-26 16:27 | 5.95593 | 125.10871 | 2361 ft | 142 kts | 354° |
| 2026-04-26 16:28 | 5.96574 | 125.10750 | 2155 ft | 142 kts | 354° |
| 2026-04-26 16:28 | 5.97557 | 125.10629 | 1950 ft | 143 kts | 354° |
| 2026-04-26 16:28 | 5.98541 | 125.10510 | 1750 ft | 143 kts | 354° |
| 2026-04-26 16:28 | 5.99524 | 125.10391 | 1532 ft | 142 kts | 354° |
| 2026-04-26 16:29 | 6.00506 | 125.10272 | 1335 ft | 142 kts | 354° |
| 2026-04-26 16:29 | 6.01481 | 125.10153 | 1131 ft | 141 kts | 354° |
| 2026-04-26 16:29 | 6.02456 | 125.10034 | 923 ft | 141 kts | 353° |
| 2026-04-26 16:29 | 6.03435 | 125.09915 | 717 ft | 142 kts | 353° |
| 2026-04-26 16:30 | 6.04409 | 125.09790 | 574 ft | 141 kts | 351° |
| 2026-04-26 16:30 | 6.05330 | 125.09674 | 514 ft | 114 kts | 353° |
| 2026-04-26 16:30 | 6.05942 | 125.09601 | 514 ft | 64 kts | 353° |
| 2026-04-26 16:30 | 6.06231 | 125.09566 | 516 ft | 20 kts | 360° |
| 2026-04-26 16:31 | 6.06261 | 125.09561 | 515 ft | 0 kts | 304° |
| 2026-04-26 16:31 | 6.06256 | 125.09557 | 514 ft | 1 kts | 224° |
| 2026-04-26 16:31 | 6.06250 | 125.09558 | 516 ft | 2 kts | 180° |
| 2026-04-26 16:31 | 6.06174 | 125.09570 | 516 ft | 20 kts | 169° |
| 2026-04-26 16:32 | 6.06113 | 125.09581 | 516 ft | 26 kts | 171° |
| 2026-04-26 16:32 | 6.05998 | 125.09597 | 514 ft | 30 kts | 173° |
| 2026-04-26 16:32 | 6.05814 | 125.09659 | 514 ft | 6 kts | 87° |
| 2026-04-26 16:32 | 6.05821 | 125.09700 | 514 ft | 7 kts | 82° |
| 2026-04-26 16:33 | 6.05833 | 125.09785 | 514 ft | 16 kts | 83° |
| 2026-04-26 16:33 | 6.05845 | 125.09892 | 514 ft | 14 kts | 82° |
| 2026-04-26 16:33 | 6.05852 | 125.09942 | 514 ft | 0 kts | 82° |